Lafayette, Wisconsin
Current Conditions -  °F | °C
As of 12:10 PM on Thursday 29 Jan 2015 (Local Time) from KEAU Reporting Station
Broken Clouds Broken Clouds  
Wind Chill: 22°   Ceiling: 3500
Heat Index: 33°   Visibility: 10mi
Dew Point: 21°   Wind: 18mph
Humidity: 61%   Direction: 320°NW
Pressure: 30.12"   Gusts: 29mph
Location:  44.9743°N, 91.4379°W
Report Text: KEAU 291810Z 32016G25KT 10SM SCT026 BKN035 01/M06 A3012 RMK AO2 T00061061
Loading
Personal Weather Stations






























Interactive Weather Map New forecast layout! Learn more

10-Day Weather Forecast

Advertisements
Track Severe Weather on mobile